createdAt,value
2022-11-17T00:02:13.416Z,9.49
2022-11-17T00:05:15.955Z,9.30
2022-11-17T00:08:18.085Z,9.32
2022-11-17T00:11:20.283Z,9.35
2022-11-17T00:14:34.463Z,9.31
2022-11-17T00:17:36.650Z,9.30
2022-11-17T00:20:58.923Z,9.26
2022-11-17T00:24:01.203Z,9.20
2022-11-17T00:27:03.414Z,9.20
2022-11-17T00:30:06.751Z,9.14
2022-11-17T00:33:27.807Z,9.18
2022-11-17T00:36:30.244Z,9.14
2022-11-17T00:39:32.869Z,9.13
2022-11-17T00:42:35.125Z,9.04
2022-11-17T00:45:37.269Z,9.03
2022-11-17T00:48:39.440Z,9.08
2022-11-17T00:51:48.373Z,8.94
2022-11-17T00:54:50.563Z,8.79
2022-11-17T00:57:59.372Z,8.75
2022-11-17T01:01:02.120Z,8.73
2022-11-17T01:04:11.374Z,8.70
2022-11-17T01:07:13.674Z,8.62
2022-11-17T01:10:15.939Z,8.57
2022-11-17T01:13:18.122Z,8.62
2022-11-17T01:16:20.810Z,8.56
2022-11-17T01:19:24.417Z,8.50
2022-11-17T01:22:26.631Z,8.53
2022-11-17T01:25:28.822Z,8.63
2022-11-17T01:28:31.096Z,8.57
2022-11-17T01:31:36.354Z,8.52
2022-11-17T01:34:38.486Z,8.56
2022-11-17T01:37:40.670Z,8.52
2022-11-17T01:40:42.820Z,8.63
2022-11-17T01:43:49.680Z,8.62
2022-11-17T01:46:54.577Z,8.60
2022-11-17T01:50:21.411Z,8.56
2022-11-17T01:53:24.129Z,8.35
2022-11-17T01:56:33.321Z,8.41
2022-11-17T01:59:40.659Z,8.39
2022-11-17T02:02:43.881Z,8.31
2022-11-17T02:05:55.108Z,8.26
2022-11-17T02:08:58.935Z,8.14
2022-11-17T02:12:01.625Z,8.12
2022-11-17T02:15:04.697Z,8.08
2022-11-17T02:18:06.996Z,8.01
2022-11-17T02:21:23.599Z,8.02
2022-11-17T02:25:02.594Z,7.93
2022-11-17T02:28:17.236Z,7.81
2022-11-17T02:31:42.620Z,7.70
2022-11-17T02:34:50.507Z,7.71
2022-11-17T02:38:04.661Z,7.60
2022-11-17T02:41:25.790Z,7.62
2022-11-17T02:44:40.570Z,7.57
2022-11-17T02:47:46.575Z,7.63
2022-11-17T02:50:50.235Z,7.66
2022-11-17T02:53:54.946Z,7.57
2022-11-17T02:56:57.158Z,7.60
2022-11-17T03:00:08.051Z,7.54
2022-11-17T03:03:18.866Z,7.43
2022-11-17T03:06:37.896Z,7.36
2022-11-17T03:09:46.462Z,7.39
2022-11-17T03:13:07.625Z,7.36
2022-11-17T03:16:25.442Z,7.15
2022-11-17T03:19:41.574Z,7.09
2022-11-17T03:22:50.072Z,6.99
2022-11-17T03:25:57.953Z,6.80
2022-11-17T03:29:03.510Z,6.60
2022-11-17T03:32:07.967Z,6.68
2022-11-17T03:35:14.883Z,6.82
2022-11-17T03:38:19.896Z,6.88
2022-11-17T03:41:23.240Z,6.96
2022-11-17T03:44:28.189Z,6.96
2022-11-17T03:47:32.251Z,6.95
2022-11-17T03:50:37.849Z,6.92
2022-11-17T03:53:40.657Z,6.87
2022-11-17T03:56:55.517Z,6.81
2022-11-17T04:00:18.026Z,6.77
2022-11-17T04:03:23.630Z,6.64
2022-11-17T04:06:25.797Z,6.61
2022-11-17T04:09:27.977Z,6.57
2022-11-17T04:12:48.655Z,6.48
2022-11-17T04:15:56.586Z,6.38
2022-11-17T04:18:59.247Z,6.19
2022-11-17T04:22:01.607Z,6.03
2022-11-17T04:25:03.912Z,6.12
2022-11-17T04:28:24.317Z,6.24
2022-11-17T04:31:28.733Z,6.34
2022-11-17T04:34:30.933Z,6.27
2022-11-17T04:37:33.117Z,6.03
2022-11-17T04:40:55.314Z,5.98
2022-11-17T04:43:57.831Z,6.17
2022-11-17T04:47:03.050Z,6.29
2022-11-17T04:50:05.742Z,6.33
2022-11-17T04:53:07.929Z,6.31
2022-11-17T04:56:10.193Z,6.27
2022-11-17T04:59:12.569Z,6.38
2022-11-17T05:02:14.848Z,6.14
2022-11-17T05:05:17.195Z,6.10
2022-11-17T05:08:19.330Z,6.10
2022-11-17T05:11:44.761Z,6.03
2022-11-17T05:14:49.124Z,5.83
2022-11-17T05:17:51.352Z,6.03
2022-11-17T05:20:53.487Z,6.20
2022-11-17T05:23:56.345Z,6.17
2022-11-17T05:26:58.504Z,6.37
2022-11-17T05:30:05.875Z,6.27
2022-11-17T05:33:08.001Z,6.21
2022-11-17T05:36:10.381Z,6.26
2022-11-17T05:39:14.060Z,6.33
2022-11-17T05:42:16.376Z,6.20
2022-11-17T05:45:18.589Z,6.26
2022-11-17T05:48:20.903Z,6.29
2022-11-17T05:51:23.994Z,6.27
2022-11-17T05:54:27.030Z,6.12
2022-11-17T05:57:32.484Z,6.10
2022-11-17T06:00:36.474Z,6.06
2022-11-17T06:03:44.438Z,6.09
2022-11-17T06:06:47.716Z,6.23
2022-11-17T06:09:51.264Z,6.33
2022-11-17T06:12:53.449Z,6.54
2022-11-17T06:15:57.428Z,6.64
2022-11-17T06:19:07.796Z,6.78
2022-11-17T06:22:13.051Z,7.01
2022-11-17T06:25:17.377Z,7.06
2022-11-17T06:28:22.466Z,7.05
2022-11-17T06:31:27.769Z,6.96
2022-11-17T06:34:31.861Z,7.01
2022-11-17T06:37:40.613Z,7.20
2022-11-17T06:40:42.793Z,7.25
2022-11-17T06:43:45.126Z,7.36
2022-11-17T06:46:49.115Z,7.36
2022-11-17T06:49:51.723Z,7.52
2022-11-17T06:52:58.684Z,7.66
2022-11-17T06:56:08.555Z,7.71
2022-11-17T06:59:10.912Z,7.70
2022-11-17T07:02:13.286Z,7.74
2022-11-17T07:05:15.942Z,7.83
2022-11-17T07:08:22.188Z,7.94
2022-11-17T07:11:24.452Z,7.93
2022-11-17T07:14:26.800Z,7.95
2022-11-17T07:17:29.699Z,8.09
2022-11-17T07:20:32.084Z,8.16
2022-11-17T07:23:35.506Z,8.15
2022-11-17T07:26:37.904Z,8.42
2022-11-17T07:29:41.079Z,8.56
2022-11-17T07:32:43.295Z,8.49
2022-11-17T07:35:45.597Z,8.48
2022-11-17T07:38:47.833Z,8.52
2022-11-17T07:41:59.869Z,8.52
2022-11-17T07:45:02.161Z,8.50
2022-11-17T07:48:06.327Z,8.67
2022-11-17T07:51:08.705Z,10.81
2022-11-17T07:54:11.005Z,11.40
2022-11-17T07:57:14.430Z,12.83
2022-11-17T08:00:17.200Z,14.08
2022-11-17T08:03:19.851Z,14.53
2022-11-17T08:06:23.989Z,15.38
2022-11-17T08:09:27.380Z,15.23
2022-11-17T08:12:29.839Z,14.65
2022-11-17T08:15:36.264Z,14.60
2022-11-17T08:18:39.913Z,14.69
2022-11-17T08:21:42.683Z,13.94
2022-11-17T08:24:45.175Z,13.85
2022-11-17T08:27:51.964Z,13.53
2022-11-17T08:30:54.278Z,13.28
2022-11-17T08:33:56.763Z,13.89
2022-11-17T08:36:59.100Z,14.80
2022-11-17T08:40:01.385Z,14.76
2022-11-17T08:43:04.201Z,14.86
2022-11-17T08:46:12.184Z,15.01
2022-11-17T08:49:14.838Z,14.56
2022-11-17T08:52:17.258Z,15.82
2022-11-17T08:55:19.655Z,14.73
2022-11-17T08:58:27.173Z,14.12
2022-11-17T09:01:29.598Z,13.39
2022-11-17T09:04:32.236Z,12.91
2022-11-17T09:07:37.722Z,12.41
2022-11-17T09:10:51.712Z,12.41
2022-11-17T09:13:54.139Z,12.42
2022-11-17T09:16:58.915Z,12.75
2022-11-17T09:20:01.330Z,13.06
2022-11-17T09:23:04.015Z,13.16
2022-11-17T09:26:10.882Z,13.28
2022-11-17T09:29:14.213Z,13.34
2022-11-17T09:32:20.799Z,14.01
2022-11-17T09:35:24.276Z,14.18
2022-11-17T09:38:26.623Z,14.11
2022-11-17T09:41:44.113Z,14.49
2022-11-17T09:44:54.263Z,14.36
2022-11-17T09:48:33.519Z,14.00
2022-11-17T09:51:26.743Z,14.83
2022-11-17T09:54:47.487Z,16.51
2022-11-17T09:58:38.902Z,16.03
2022-11-17T10:01:41.839Z,17.19
2022-11-17T10:04:44.154Z,16.38
2022-11-17T10:07:50.915Z,17.22
2022-11-17T10:10:53.252Z,17.42
2022-11-17T10:13:55.681Z,17.62
2022-11-17T10:17:02.077Z,17.79
2022-11-17T10:20:15.716Z,17.42
2022-11-17T10:23:20.036Z,16.60
2022-11-17T10:26:22.416Z,15.93
2022-11-17T10:29:24.709Z,15.86
2022-11-17T10:32:33.033Z,16.36
2022-11-17T10:35:35.563Z,16.56
2022-11-17T10:38:44.733Z,16.94
2022-11-17T10:41:50.419Z,16.96
2022-11-17T10:44:56.448Z,16.82
2022-11-17T10:48:10.662Z,16.43
2022-11-17T10:51:24.554Z,16.17
2022-11-17T10:54:28.816Z,16.07
2022-11-17T10:57:35.410Z,15.57
2022-11-17T11:00:52.498Z,15.59
2022-11-17T11:03:58.326Z,15.47
2022-11-17T11:07:20.428Z,15.58
2022-11-17T11:10:34.559Z,15.99
2022-11-17T11:13:49.755Z,16.40
2022-11-17T11:16:52.362Z,16.43
2022-11-17T11:19:55.214Z,19.74
2022-11-17T11:23:07.789Z,21.54
2022-11-17T11:26:34.920Z,24.38
2022-11-17T11:30:09.771Z,26.33
2022-11-17T11:33:29.021Z,24.69
2022-11-17T11:36:47.761Z,23.49
2022-11-17T11:40:08.430Z,22.92
2022-11-17T11:43:29.219Z,22.75
2022-11-17T11:46:48.435Z,22.10
2022-11-17T11:50:05.744Z,22.75
2022-11-17T11:53:17.392Z,23.18
2022-11-17T11:56:26.833Z,24.67
2022-11-17T12:00:03.692Z,24.21
2022-11-17T12:03:40.687Z,24.13
2022-11-17T12:06:43.022Z,24.76
2022-11-17T12:10:16.735Z,24.75
2022-11-17T12:13:22.585Z,24.34
2022-11-17T12:16:36.206Z,23.98
2022-11-17T12:19:54.958Z,22.65
2022-11-17T12:23:38.895Z,22.48
2022-11-17T12:26:41.221Z,21.12
2022-11-17T12:29:47.253Z,20.01
2022-11-17T12:32:49.380Z,18.75
2022-11-17T12:36:30.025Z,17.19
2022-11-17T12:39:59.329Z,16.81
2022-11-17T12:43:17.035Z,17.56
2022-11-17T12:46:22.283Z,16.89
2022-11-17T12:49:37.005Z,17.11
2022-11-17T12:52:54.057Z,18.42
2022-11-17T12:56:31.839Z,19.41
2022-11-17T12:59:40.272Z,18.44
2022-11-17T13:02:59.273Z,19.34
2022-11-17T13:09:36.927Z,19.61
2022-11-17T13:12:39.131Z,19.75
2022-11-17T13:15:45.485Z,18.63
2022-11-17T13:18:48.971Z,18.93
2022-11-17T13:22:01.645Z,19.81
2022-11-17T13:25:22.277Z,21.00
2022-11-17T13:28:33.013Z,20.43
2022-11-17T13:31:35.564Z,21.39
2022-11-17T13:35:00.476Z,21.92
2022-11-17T13:38:07.021Z,22.91
2022-11-17T13:41:10.338Z,22.97
2022-11-17T13:44:23.151Z,23.43
2022-11-17T13:47:48.731Z,23.25
2022-11-17T13:50:51.017Z,23.32
2022-11-17T13:54:00.573Z,20.37
2022-11-17T13:57:18.405Z,17.94
2022-11-17T14:00:21.098Z,17.39
2022-11-17T14:03:34.503Z,16.40
2022-11-17T14:07:12.444Z,15.73
2022-11-17T14:10:20.948Z,14.88
2022-11-17T14:13:27.908Z,14.53
2022-11-17T14:16:39.364Z,14.57
2022-11-17T14:19:41.886Z,14.29
2022-11-17T14:23:03.653Z,14.26
2022-11-17T14:26:06.686Z,13.81
2022-11-17T14:29:12.315Z,13.84
2022-11-17T14:32:14.624Z,13.88
2022-11-17T14:38:21.635Z,15.06
2022-11-17T14:41:23.999Z,15.63
2022-11-17T14:44:26.265Z,15.54
2022-11-17T14:47:28.472Z,15.07
2022-11-17T14:50:30.702Z,14.45
2022-11-17T14:53:33.579Z,14.29
2022-11-17T14:56:35.921Z,13.78
2022-11-17T14:59:38.142Z,13.50
2022-11-17T15:02:40.683Z,13.10
2022-11-17T15:05:45.528Z,12.81
2022-11-17T15:08:59.049Z,12.73
2022-11-17T15:12:01.281Z,12.45
2022-11-17T15:15:05.100Z,12.27
2022-11-17T15:18:07.939Z,11.97
2022-11-17T15:21:11.210Z,11.65
2022-11-17T15:24:13.967Z,11.50
2022-11-17T15:27:16.448Z,11.32
2022-11-17T15:30:18.781Z,11.14
2022-11-17T15:33:21.455Z,10.91
2022-11-17T15:36:24.223Z,10.70
2022-11-17T15:39:26.492Z,10.63
2022-11-17T15:42:28.742Z,10.51
2022-11-17T15:45:34.432Z,10.57
2022-11-17T15:48:40.149Z,10.65
2022-11-17T15:51:42.403Z,10.59
2022-11-17T15:54:44.609Z,10.49
2022-11-17T15:57:46.911Z,10.40
2022-11-17T16:00:49.248Z,10.34
2022-11-17T16:03:52.748Z,10.26
2022-11-17T16:06:54.962Z,10.23
2022-11-17T16:09:57.335Z,10.21
2022-11-17T16:12:59.563Z,10.29
2022-11-17T16:16:01.951Z,10.50
2022-11-17T16:19:05.655Z,10.30
2022-11-17T16:22:07.909Z,10.29
2022-11-17T16:25:10.511Z,10.16
2022-11-17T16:28:13.441Z,10.06
2022-11-17T16:31:25.954Z,10.02
2022-11-17T16:34:28.266Z,9.90
2022-11-17T16:37:30.844Z,9.81
2022-11-17T16:40:35.567Z,9.78
2022-11-17T16:43:44.273Z,9.75
2022-11-17T16:46:49.814Z,9.74
2022-11-17T16:49:52.161Z,9.75
2022-11-17T16:52:54.411Z,9.75
2022-11-17T17:00:45.031Z,9.82
2022-11-17T17:03:47.317Z,9.93
2022-11-17T17:06:49.543Z,9.96
2022-11-17T17:09:52.547Z,10.14
2022-11-17T17:12:54.783Z,10.14
2022-11-17T17:16:02.869Z,10.13
2022-11-17T17:19:07.161Z,10.14
2022-11-17T17:22:15.620Z,10.17
2022-11-17T17:25:17.847Z,10.08
2022-11-17T17:28:20.082Z,10.09
2022-11-17T17:31:23.171Z,10.00
2022-11-17T17:34:25.379Z,10.03
2022-11-17T17:37:27.563Z,9.92
2022-11-17T17:40:29.826Z,9.98
2022-11-17T17:43:32.552Z,9.92
2022-11-17T17:46:37.404Z,9.85
2022-11-17T17:49:39.642Z,9.85
2022-11-17T17:52:41.850Z,9.82
2022-11-17T17:55:44.069Z,9.69
2022-11-17T17:58:48.810Z,9.68
2022-11-17T18:01:51.533Z,9.61
2022-11-17T18:04:54.363Z,9.63
2022-11-17T18:07:56.551Z,9.59
2022-11-17T18:11:03.099Z,9.55
2022-11-17T18:14:05.314Z,9.62
2022-11-17T18:17:07.884Z,9.57
2022-11-17T18:20:10.560Z,9.58
2022-11-17T18:23:12.816Z,9.57
2022-11-17T18:26:23.351Z,9.61
2022-11-17T18:29:25.602Z,9.44
2022-11-17T18:32:27.848Z,9.48
2022-11-17T18:35:30.096Z,9.41
2022-11-17T18:38:34.091Z,9.35
2022-11-17T18:41:36.867Z,9.38
2022-11-17T18:44:39.119Z,9.30
2022-11-17T18:47:41.323Z,9.30
2022-11-17T18:51:17.312Z,9.35
2022-11-17T18:54:11.373Z,9.30
2022-11-17T18:57:13.617Z,9.31
2022-11-17T19:00:16.499Z,9.32
2022-11-17T19:03:19.425Z,9.31
2022-11-17T19:06:25.411Z,9.23
2022-11-17T19:09:27.620Z,9.07
2022-11-17T19:12:29.861Z,9.07
2022-11-17T19:15:32.098Z,8.99
2022-11-17T19:18:35.299Z,8.93
2022-11-17T19:21:37.506Z,8.90
2022-11-17T19:24:40.770Z,8.90
2022-11-17T19:27:42.952Z,8.86
2022-11-17T19:30:45.177Z,8.89
2022-11-17T19:33:49.082Z,8.90
2022-11-17T19:36:51.284Z,9.01
2022-11-17T19:39:53.503Z,8.94
2022-11-17T19:42:55.717Z,8.89
2022-11-17T19:45:59.863Z,8.84
2022-11-17T19:49:02.634Z,8.70
2022-11-17T19:52:04.850Z,8.49
2022-11-17T19:55:07.353Z,8.55
2022-11-17T19:58:09.615Z,8.57
2022-11-17T20:01:16.150Z,8.42
2022-11-17T20:04:18.487Z,8.31
2022-11-17T20:07:20.689Z,8.50
2022-11-17T20:10:23.023Z,8.42
2022-11-17T20:13:26.215Z,8.49
2022-11-17T20:16:30.410Z,8.42
2022-11-17T20:19:33.919Z,8.28
2022-11-17T20:22:36.126Z,8.16
2022-11-17T20:25:38.730Z,8.14
2022-11-17T20:28:41.837Z,8.04
2022-11-17T20:31:44.069Z,8.04
2022-11-17T20:34:46.295Z,7.99
2022-11-17T20:37:48.595Z,7.87
2022-11-17T20:40:56.341Z,7.80
2022-11-17T20:44:00.121Z,7.90
2022-11-17T20:47:02.319Z,7.80
2022-11-17T20:50:05.051Z,7.95
2022-11-17T20:53:14.773Z,7.97
2022-11-17T20:56:17.801Z,7.98
2022-11-17T20:59:20.420Z,7.99
2022-11-17T21:02:22.811Z,7.95
2022-11-17T21:05:27.756Z,7.73
2022-11-17T21:08:32.068Z,7.66
2022-11-17T21:11:52.937Z,7.50
2022-11-17T21:14:55.163Z,7.36
2022-11-17T21:18:15.637Z,7.33
2022-11-17T21:21:17.912Z,7.29
2022-11-17T21:24:21.862Z,7.23
2022-11-17T21:27:24.116Z,7.23
2022-11-17T21:30:26.408Z,7.36
2022-11-17T21:33:28.636Z,7.37
2022-11-17T21:36:31.891Z,7.20
2022-11-17T21:39:34.139Z,7.08
2022-11-17T21:42:36.411Z,7.12
2022-11-17T21:45:38.672Z,7.20
2022-11-17T21:48:41.711Z,7.43
2022-11-17T21:51:44.954Z,7.64
2022-11-17T21:54:47.218Z,7.77
2022-11-17T21:57:52.207Z,8.05
2022-11-17T22:00:54.514Z,8.12
2022-11-17T22:03:57.094Z,8.15
2022-11-17T22:06:59.396Z,8.12
2022-11-17T22:10:01.691Z,8.09
2022-11-17T22:13:08.125Z,8.08
2022-11-17T22:16:14.468Z,8.20
2022-11-17T22:19:18.279Z,8.22
2022-11-17T22:22:20.699Z,8.18
2022-11-17T22:25:44.336Z,8.11
2022-11-17T22:28:45.323Z,8.07
2022-11-17T22:31:48.873Z,8.12
2022-11-17T22:35:01.352Z,8.05
2022-11-17T22:38:03.591Z,8.07
2022-11-17T22:41:07.428Z,8.11
2022-11-17T22:44:12.934Z,8.09
2022-11-17T22:47:15.636Z,8.14
2022-11-17T22:50:17.972Z,8.15
2022-11-17T22:53:20.227Z,8.15
2022-11-17T22:56:22.443Z,8.08
2022-11-17T22:59:26.231Z,8.09
2022-11-17T23:02:28.801Z,8.08
2022-11-17T23:05:31.645Z,8.12
2022-11-17T23:08:33.905Z,8.12
2022-11-17T23:11:38.212Z,8.21
2022-11-17T23:14:40.784Z,8.15
2022-11-17T23:17:42.987Z,8.08
2022-11-17T23:20:45.262Z,8.05
2022-11-17T23:23:47.901Z,8.11
2022-11-17T23:26:50.133Z,8.11
2022-11-17T23:29:52.330Z,8.05
2022-11-17T23:32:57.622Z,8.08
2022-11-17T23:35:59.855Z,7.90
2022-11-17T23:39:02.064Z,7.81
2022-11-17T23:42:04.818Z,7.94
2022-11-17T23:45:07.753Z,7.87
2022-11-17T23:48:10.102Z,7.87
2022-11-17T23:51:14.743Z,7.93
2022-11-17T23:54:16.984Z,7.93
2022-11-17T23:57:19.221Z,7.88
